createdAt,value
2022-08-04T00:02:19.030Z,24.60
2022-08-04T00:06:51.743Z,24.60
2022-08-04T00:10:59.310Z,24.50
2022-08-04T00:15:02.333Z,24.40
2022-08-04T00:19:12.933Z,24.40
2022-08-04T00:23:14.661Z,24.40
2022-08-04T00:27:16.519Z,24.30
2022-08-04T00:31:18.632Z,24.30
2022-08-04T00:35:34.841Z,24.20
2022-08-04T00:39:36.785Z,24.20
2022-08-04T00:44:33.709Z,24.20
2022-08-04T00:49:21.846Z,24.10
2022-08-04T00:53:56.412Z,24.00
2022-08-04T00:58:38.357Z,24.00
2022-08-04T01:03:06.848Z,23.90
2022-08-04T01:07:31.502Z,23.90
2022-08-04T01:11:56.484Z,23.80
2022-08-04T01:16:05.345Z,23.80
2022-08-04T01:20:09.017Z,23.80
2022-08-04T01:24:30.720Z,23.70
2022-08-04T01:29:15.911Z,23.70
2022-08-04T01:33:18.223Z,23.70
2022-08-04T01:37:48.898Z,23.60
2022-08-04T01:41:58.185Z,23.60
2022-08-04T01:46:03.060Z,23.60
2022-08-04T01:50:08.279Z,23.50
2022-08-04T01:54:10.093Z,23.50
2022-08-04T01:58:11.883Z,23.50
2022-08-04T02:02:13.887Z,23.50
2022-08-04T02:06:37.880Z,23.40
2022-08-04T02:10:42.619Z,23.40
2022-08-04T02:15:03.516Z,23.40
2022-08-04T02:20:00.885Z,23.30
2022-08-04T02:24:11.407Z,23.30
2022-08-04T02:28:33.484Z,23.30
2022-08-04T02:32:39.799Z,23.30
2022-08-04T02:36:42.613Z,23.30
2022-08-04T02:40:44.346Z,23.20
2022-08-04T02:44:58.080Z,23.20
2022-08-04T02:49:02.358Z,23.20
2022-08-04T02:53:04.420Z,23.20
2022-08-04T02:57:13.251Z,23.20
2022-08-04T03:01:15.173Z,23.20
2022-08-04T03:06:12.377Z,23.20
2022-08-04T03:10:57.439Z,23.20
2022-08-04T03:20:14.389Z,23.20
2022-08-04T03:24:59.686Z,23.10
2022-08-04T03:29:36.871Z,23.20
2022-08-04T03:34:30.177Z,23.10
2022-08-04T03:39:03.576Z,23.20
2022-08-04T03:43:59.440Z,23.20
2022-08-04T03:48:40.209Z,23.20
2022-08-04T03:53:26.860Z,23.30
2022-08-04T03:58:09.629Z,23.60
2022-08-04T04:02:53.737Z,24.00
2022-08-04T04:07:27.269Z,24.50
2022-08-04T04:12:08.369Z,25.00
2022-08-04T04:16:37.443Z,25.50
2022-08-04T04:21:09.901Z,26.10
2022-08-04T04:25:34.561Z,26.70
2022-08-04T04:30:04.632Z,26.90
2022-08-04T04:34:25.360Z,27.20
2022-08-04T04:38:45.692Z,27.40
2022-08-04T04:43:10.376Z,27.90
2022-08-04T04:48:09.647Z,28.30
2022-08-04T04:52:28.560Z,28.60
2022-08-04T04:57:00.820Z,28.60
2022-08-04T05:01:26.517Z,28.90
2022-08-04T05:06:08.353Z,29.00
2022-08-04T05:10:40.803Z,29.30
2022-08-04T05:14:47.388Z,29.60
2022-08-04T05:19:04.528Z,29.90
2022-08-04T05:23:13.600Z,30.40
2022-08-04T05:27:21.754Z,30.70
2022-08-04T05:31:27.485Z,30.60
2022-08-04T05:35:38.989Z,31.20
2022-08-04T05:40:00.778Z,31.40
2022-08-04T05:44:02.582Z,31.70
2022-08-04T05:48:05.460Z,32.00
2022-08-04T05:52:07.444Z,32.20
2022-08-04T05:56:09.208Z,32.10
2022-08-04T06:00:38.886Z,32.20
2022-08-04T06:04:38.333Z,32.40
2022-08-04T06:08:40.130Z,32.50
2022-08-04T06:12:52.269Z,33.40
2022-08-04T06:16:54.453Z,33.30
2022-08-04T06:20:56.952Z,33.50
2022-08-04T06:25:01.574Z,33.60
2022-08-04T06:29:05.046Z,34.00
2022-08-04T06:33:28.543Z,34.30
2022-08-04T06:37:43.531Z,34.20
2022-08-04T06:42:17.286Z,34.30
2022-08-04T06:46:07.638Z,35.10
2022-08-04T06:51:26.687Z,35.50
2022-08-04T06:54:33.091Z,35.30
2022-08-04T06:58:34.934Z,35.80
2022-08-04T07:02:44.608Z,35.20
2022-08-04T07:06:46.497Z,35.10
2022-08-04T07:10:48.361Z,35.40
2022-08-04T07:14:50.340Z,35.20
2022-08-04T07:18:52.162Z,35.40
2022-08-04T07:22:53.891Z,36.10
2022-08-04T07:26:56.083Z,36.20
2022-08-04T07:30:58.361Z,35.70
2022-08-04T07:35:00.326Z,35.70
2022-08-04T07:39:04.896Z,35.80
2022-08-04T07:43:09.348Z,35.90
2022-08-04T07:47:11.156Z,35.40
2022-08-04T07:51:13.079Z,36.10
2022-08-04T07:55:14.850Z,36.00
2022-08-04T07:59:16.822Z,36.10
2022-08-04T08:03:21.669Z,36.40
2022-08-04T08:07:24.017Z,36.90
2022-08-04T08:11:26.157Z,36.70
2022-08-04T08:15:48.031Z,36.90
2022-08-04T08:19:49.884Z,36.90
2022-08-04T08:23:51.672Z,36.90
2022-08-04T08:27:56.141Z,37.00
2022-08-04T08:32:02.755Z,37.10
2022-08-04T08:36:33.684Z,37.30
2022-08-04T08:40:50.759Z,37.40
2022-08-04T08:45:35.356Z,37.60
2022-08-04T08:50:12.308Z,37.50
2022-08-04T08:54:41.955Z,37.80
2022-08-04T08:58:59.538Z,38.10
2022-08-04T09:03:46.085Z,38.00
2022-08-04T09:08:05.907Z,37.50
2022-08-04T09:12:28.139Z,37.50
2022-08-04T09:16:46.134Z,37.50
2022-08-04T09:20:52.255Z,37.30
2022-08-04T09:25:13.843Z,37.20
2022-08-04T09:29:54.178Z,37.10
2022-08-04T09:34:10.360Z,37.60
2022-08-04T09:38:29.550Z,37.40
2022-08-04T09:42:41.766Z,37.20
2022-08-04T09:47:26.289Z,37.10
2022-08-04T09:51:58.385Z,37.40
2022-08-04T09:56:24.590Z,37.60
2022-08-04T10:00:41.433Z,37.50
2022-08-04T10:04:44.073Z,37.60
2022-08-04T10:09:23.384Z,37.70
2022-08-04T10:13:48.987Z,38.00
2022-08-04T10:18:19.767Z,37.80
2022-08-04T10:22:30.001Z,37.80
2022-08-04T10:26:55.491Z,37.90
2022-08-04T10:31:03.321Z,37.90
2022-08-04T10:35:16.185Z,37.70
2022-08-04T10:39:42.001Z,37.60
2022-08-04T10:43:49.343Z,37.50
2022-08-04T10:48:10.689Z,37.80
2022-08-04T10:52:33.772Z,38.00
2022-08-04T10:56:43.015Z,37.80
2022-08-04T11:00:44.829Z,37.80
2022-08-04T11:05:04.809Z,37.80
2022-08-04T11:09:06.568Z,37.80
2022-08-04T11:13:29.622Z,37.70
2022-08-04T11:17:36.302Z,37.30
2022-08-04T11:21:45.190Z,36.70
2022-08-04T11:26:13.193Z,36.70
2022-08-04T11:30:14.990Z,36.60
2022-08-04T11:34:24.651Z,36.40
2022-08-04T11:38:57.042Z,36.60
2022-08-04T11:43:02.566Z,36.90
2022-08-04T11:47:09.478Z,37.00
2022-08-04T11:51:11.949Z,37.20
2022-08-04T11:55:16.599Z,37.20
2022-08-04T11:59:18.630Z,37.50
2022-08-04T12:03:39.576Z,37.50
2022-08-04T12:08:02.883Z,37.30
2022-08-04T12:12:55.975Z,37.10
2022-08-04T12:17:01.869Z,37.10
2022-08-04T12:21:15.032Z,37.30
2022-08-04T12:25:29.465Z,37.40
2022-08-04T12:29:33.658Z,37.50
2022-08-04T12:34:03.401Z,37.50
2022-08-04T12:38:07.401Z,37.20
2022-08-04T12:42:26.885Z,36.90
2022-08-04T12:46:29.197Z,37.10
2022-08-04T12:50:31.076Z,36.90
2022-08-04T12:54:33.734Z,37.00
2022-08-04T12:58:44.415Z,36.70
2022-08-04T13:02:47.646Z,36.50
2022-08-04T13:07:15.487Z,36.30
2022-08-04T13:11:18.067Z,36.50
2022-08-04T13:15:22.525Z,36.30
2022-08-04T13:19:24.273Z,36.10
2022-08-04T13:23:26.311Z,36.40
2022-08-04T13:27:28.077Z,36.50
2022-08-04T13:31:52.804Z,36.60
2022-08-04T13:35:56.700Z,36.70
2022-08-04T13:39:58.581Z,36.80
2022-08-04T13:44:17.925Z,36.70
2022-08-04T13:48:31.806Z,36.90
2022-08-04T13:52:34.676Z,36.70
2022-08-04T13:56:40.237Z,36.60
2022-08-04T14:01:07.633Z,36.50
2022-08-04T14:05:29.451Z,36.50
2022-08-04T14:09:35.446Z,36.30
2022-08-04T14:13:40.998Z,36.20
2022-08-04T14:17:44.159Z,36.00
2022-08-04T14:21:45.911Z,35.90
2022-08-04T14:25:47.922Z,36.10
2022-08-04T14:29:49.749Z,36.20
2022-08-04T14:34:01.700Z,36.40
2022-08-04T14:38:09.574Z,36.70
2022-08-04T14:42:11.287Z,36.90
2022-08-04T14:46:13.434Z,36.90
2022-08-04T14:50:15.482Z,36.90
2022-08-04T14:54:18.849Z,36.90
2022-08-04T14:58:35.637Z,37.10
2022-08-04T15:02:40.538Z,37.30
2022-08-04T15:06:42.356Z,37.30
2022-08-04T15:10:44.771Z,37.40
2022-08-04T15:14:47.001Z,37.50
2022-08-04T15:18:49.583Z,37.30
2022-08-04T15:22:51.710Z,37.10
2022-08-04T15:26:53.762Z,36.70
2022-08-04T15:30:55.670Z,36.50
2022-08-04T15:35:08.345Z,36.20
2022-08-04T15:39:37.029Z,36.00
2022-08-04T15:44:31.538Z,35.90
2022-08-04T15:48:33.530Z,35.90
2022-08-04T15:53:10.857Z,35.90
2022-08-04T15:57:14.664Z,35.90
2022-08-04T16:01:17.191Z,35.90
2022-08-04T16:05:22.443Z,35.80
2022-08-04T16:09:45.139Z,35.80
2022-08-04T16:14:08.621Z,35.80
2022-08-04T16:18:25.658Z,35.80
2022-08-04T16:22:38.806Z,35.70
2022-08-04T16:26:54.694Z,35.60
2022-08-04T16:31:11.030Z,35.40
2022-08-04T16:35:27.152Z,35.40
2022-08-04T16:39:29.470Z,35.40
2022-08-04T16:43:51.059Z,35.40
2022-08-04T16:47:55.437Z,35.40
2022-08-04T16:52:08.446Z,35.30
2022-08-04T16:56:15.058Z,35.20
2022-08-04T17:00:20.534Z,35.20
2022-08-04T17:04:42.568Z,35.10
2022-08-04T17:08:45.612Z,35.00
2022-08-04T17:12:47.512Z,34.90
2022-08-04T17:16:49.434Z,34.80
2022-08-04T17:20:59.312Z,34.80
2022-08-04T17:25:04.723Z,34.80
2022-08-04T17:29:08.302Z,34.70
2022-08-04T17:37:52.568Z,34.50
2022-08-04T17:41:56.868Z,34.40
2022-08-04T17:50:44.682Z,34.20
2022-08-04T17:54:47.311Z,34.00
2022-08-04T17:59:52.273Z,34.00
2022-08-04T18:03:38.708Z,33.90
2022-08-04T18:08:34.506Z,33.80
2022-08-04T18:12:07.170Z,33.60
2022-08-04T18:16:22.239Z,33.50
2022-08-04T18:20:26.352Z,33.40
2022-08-04T18:24:35.991Z,33.20
2022-08-04T18:28:55.293Z,33.10
2022-08-04T18:33:10.462Z,33.00
2022-08-04T18:38:05.833Z,32.80
2022-08-04T18:42:01.298Z,32.70
2022-08-04T18:46:05.633Z,32.50
2022-08-04T18:51:00.926Z,32.30
2022-08-04T18:54:39.651Z,32.20
2022-08-04T18:58:45.419Z,32.00
2022-08-04T19:02:47.643Z,31.90
2022-08-04T19:06:49.542Z,31.80
2022-08-04T19:10:58.420Z,31.70
2022-08-04T19:15:08.515Z,31.60
2022-08-04T19:19:12.336Z,31.50
2022-08-04T19:24:30.268Z,31.40
2022-08-04T19:27:38.861Z,31.40
2022-08-04T19:31:42.407Z,31.30
2022-08-04T19:35:50.789Z,31.30
2022-08-04T19:39:53.028Z,31.00
2022-08-04T19:43:55.991Z,30.90
2022-08-04T19:48:12.007Z,30.80
2022-08-04T19:52:34.142Z,30.70
2022-08-04T20:01:01.077Z,30.40
2022-08-04T20:05:03.054Z,30.20
2022-08-04T20:09:24.471Z,30.10
2022-08-04T20:13:37.267Z,30.00
2022-08-04T20:18:07.014Z,29.90
2022-08-04T20:22:08.630Z,29.70
2022-08-04T20:26:30.002Z,29.60
2022-08-04T20:30:47.724Z,29.40
2022-08-04T20:35:00.640Z,29.30
2022-08-04T20:39:02.466Z,29.20
2022-08-04T20:43:05.613Z,29.20
2022-08-04T20:47:10.614Z,29.10
2022-08-04T20:51:31.555Z,29.10
2022-08-04T20:55:55.284Z,29.00
2022-08-04T21:00:00.173Z,29.00
2022-08-04T21:04:29.186Z,28.90
2022-08-04T21:08:32.635Z,28.80
2022-08-04T21:12:35.298Z,28.80
2022-08-04T21:16:55.520Z,28.80
2022-08-04T21:20:58.102Z,28.70
2022-08-04T21:24:59.925Z,28.60
2022-08-04T21:29:03.140Z,28.50
2022-08-04T21:33:05.751Z,28.40
2022-08-04T21:37:12.771Z,28.30
2022-08-04T21:41:24.293Z,28.20
2022-08-04T21:45:35.966Z,28.10
2022-08-04T21:49:38.313Z,28.00
2022-08-04T21:53:59.881Z,27.90
2022-08-04T21:58:01.654Z,27.80
2022-08-04T22:02:04.631Z,27.70
2022-08-04T22:06:10.191Z,27.70
2022-08-04T22:10:12.066Z,27.60
2022-08-04T22:14:14.577Z,27.50
2022-08-04T22:18:16.322Z,27.40
2022-08-04T22:26:41.033Z,27.20
2022-08-04T22:30:51.982Z,27.20
2022-08-04T22:34:54.032Z,27.10
2022-08-04T22:39:04.288Z,27.00
2022-08-04T22:43:32.358Z,26.90
2022-08-04T22:47:30.548Z,26.80
2022-08-04T22:51:32.464Z,26.80
2022-08-04T22:56:07.195Z,26.70
2022-08-04T22:59:56.214Z,26.70
2022-08-04T23:03:58.155Z,26.60
2022-08-04T23:08:05.086Z,26.50
2022-08-04T23:12:24.463Z,26.40
2022-08-04T23:16:28.190Z,26.40
2022-08-04T23:20:32.696Z,26.30
2022-08-04T23:24:34.940Z,26.30
2022-08-04T23:28:36.701Z,26.20
2022-08-04T23:32:38.468Z,26.20
2022-08-04T23:36:40.734Z,26.10
2022-08-04T23:40:49.996Z,26.10
2022-08-04T23:44:54.617Z,26.10
2022-08-04T23:48:56.499Z,26.00
2022-08-04T23:52:58.933Z,25.90
2022-08-04T23:57:01.393Z,25.90
